sensor_id;sensor_type;location;lat;lon;timestamp;temperature;humidity
15156;DHT22;7678;50.058;8.306;2024-03-02T00:02:05;3.80;99.90
15156;DHT22;7678;50.058;8.306;2024-03-02T00:04:34;3.80;99.90
15156;DHT22;7678;50.058;8.306;2024-03-02T00:07:02;3.80;99.90
15156;DHT22;7678;50.058;8.306;2024-03-02T00:09:30;3.70;99.90
15156;DHT22;7678;50.058;8.306;2024-03-02T00:11:59;3.70;99.90
15156;DHT22;7678;50.058;8.306;2024-03-02T00:14:29;3.80;99.90
15156;DHT22;7678;50.058;8.306;2024-03-02T00:16:57;3.90;99.90
15156;DHT22;7678;50.058;8.306;2024-03-02T00:19:28;3.90;99.90
15156;DHT22;7678;50.058;8.306;2024-03-02T00:21:56;3.80;99.90
15156;DHT22;7678;50.058;8.306;2024-03-02T00:24:34;3.70;99.90
15156;DHT22;7678;50.058;8.306;2024-03-02T00:27:04;3.50;99.90
15156;DHT22;7678;50.058;8.306;2024-03-02T00:29:35;3.40;99.90
15156;DHT22;7678;50.058;8.306;2024-03-02T00:32:03;3.40;99.90
15156;DHT22;7678;50.058;8.306;2024-03-02T00:34:37;3.40;99.90
15156;DHT22;7678;50.058;8.306;2024-03-02T00:37:05;3.20;99.90
15156;DHT22;7678;50.058;8.306;2024-03-02T00:39:34;3.20;99.90
15156;DHT22;7678;50.058;8.306;2024-03-02T00:42:02;3.20;99.90
15156;DHT22;7678;50.058;8.306;2024-03-02T00:44:33;3.30;99.90
15156;DHT22;7678;50.058;8.306;2024-03-02T00:47:02;3.40;99.90
15156;DHT22;7678;50.058;8.306;2024-03-02T00:49:31;3.50;99.90
15156;DHT22;7678;50.058;8.306;2024-03-02T00:52:01;3.50;99.90
15156;DHT22;7678;50.058;8.306;2024-03-02T00:54:30;3.50;99.90
15156;DHT22;7678;50.058;8.306;2024-03-02T00:56:58;3.40;99.90
15156;DHT22;7678;50.058;8.306;2024-03-02T00:59:26;3.50;99.90
15156;DHT22;7678;50.058;8.306;2024-03-02T01:01:54;3.70;99.90
15156;DHT22;7678;50.058;8.306;2024-03-02T01:04:23;3.70;99.90
15156;DHT22;7678;50.058;8.306;2024-03-02T01:06:51;3.50;99.90
15156;DHT22;7678;50.058;8.306;2024-03-02T01:09:21;3.50;99.90
15156;DHT22;7678;50.058;8.306;2024-03-02T01:11:49;3.50;99.90
15156;DHT22;7678;50.058;8.306;2024-03-02T01:14:17;3.50;99.90
15156;DHT22;7678;50.058;8.306;2024-03-02T01:16:45;3.50;99.90
15156;DHT22;7678;50.058;8.306;2024-03-02T01:19:13;3.50;99.90
15156;DHT22;7678;50.058;8.306;2024-03-02T01:21:42;3.40;99.90
15156;DHT22;7678;50.058;8.306;2024-03-02T01:24:10;3.40;99.90
15156;DHT22;7678;50.058;8.306;2024-03-02T01:26:41;3.30;99.90
15156;DHT22;7678;50.058;8.306;2024-03-02T01:29:09;3.40;99.90
15156;DHT22;7678;50.058;8.306;2024-03-02T01:31:37;3.40;99.90
15156;DHT22;7678;50.058;8.306;2024-03-02T01:34:08;3.20;99.90
15156;DHT22;7678;50.058;8.306;2024-03-02T01:36:36;3.20;99.90
15156;DHT22;7678;50.058;8.306;2024-03-02T01:39:04;3.20;99.90
15156;DHT22;7678;50.058;8.306;2024-03-02T01:41:35;3.10;99.90
15156;DHT22;7678;50.058;8.306;2024-03-02T01:44:05;3.00;99.90
15156;DHT22;7678;50.058;8.306;2024-03-02T01:46:33;3.10;99.90
15156;DHT22;7678;50.058;8.306;2024-03-02T01:49:01;3.10;99.90
15156;DHT22;7678;50.058;8.306;2024-03-02T01:51:29;3.10;99.90
15156;DHT22;7678;50.058;8.306;2024-03-02T01:53:57;3.30;99.90
15156;DHT22;7678;50.058;8.306;2024-03-02T01:56:25;3.30;99.90
15156;DHT22;7678;50.058;8.306;2024-03-02T01:58:53;3.20;99.90
15156;DHT22;7678;50.058;8.306;2024-03-02T02:01:23;3.30;99.90
15156;DHT22;7678;50.058;8.306;2024-03-02T02:03:51;3.40;99.90
15156;DHT22;7678;50.058;8.306;2024-03-02T02:06:19;3.30;99.90
15156;DHT22;7678;50.058;8.306;2024-03-02T02:08:48;3.20;99.90
15156;DHT22;7678;50.058;8.306;2024-03-02T02:11:16;3.20;99.90
15156;DHT22;7678;50.058;8.306;2024-03-02T02:13:44;3.20;99.90
15156;DHT22;7678;50.058;8.306;2024-03-02T02:16:13;3.20;99.90
15156;DHT22;7678;50.058;8.306;2024-03-02T02:18:42;3.20;99.90
15156;DHT22;7678;50.058;8.306;2024-03-02T02:21:10;3.20;99.90
15156;DHT22;7678;50.058;8.306;2024-03-02T02:23:40;3.20;99.90
15156;DHT22;7678;50.058;8.306;2024-03-02T02:26:13;3.10;99.90
15156;DHT22;7678;50.058;8.306;2024-03-02T02:28:40;3.10;99.90
15156;DHT22;7678;50.058;8.306;2024-03-02T02:31:13;3.10;99.90
15156;DHT22;7678;50.058;8.306;2024-03-02T02:33:42;3.00;99.90
15156;DHT22;7678;50.058;8.306;2024-03-02T02:36:10;3.10;99.90
15156;DHT22;7678;50.058;8.306;2024-03-02T02:38:42;3.10;99.90
15156;DHT22;7678;50.058;8.306;2024-03-02T02:41:11;3.10;99.90
15156;DHT22;7678;50.058;8.306;2024-03-02T02:43:39;3.00;99.90
15156;DHT22;7678;50.058;8.306;2024-03-02T02:46:09;3.00;99.90
15156;DHT22;7678;50.058;8.306;2024-03-02T02:48:38;3.00;99.90
15156;DHT22;7678;50.058;8.306;2024-03-02T02:51:06;3.10;99.90
15156;DHT22;7678;50.058;8.306;2024-03-02T02:53:34;3.10;99.90
15156;DHT22;7678;50.058;8.306;2024-03-02T02:56:08;3.00;99.90
15156;DHT22;7678;50.058;8.306;2024-03-02T02:58:36;3.00;99.90
15156;DHT22;7678;50.058;8.306;2024-03-02T03:01:04;3.00;99.90
15156;DHT22;7678;50.058;8.306;2024-03-02T03:03:32;2.90;99.90
15156;DHT22;7678;50.058;8.306;2024-03-02T03:06:00;3.00;99.90
15156;DHT22;7678;50.058;8.306;2024-03-02T03:08:29;3.00;99.90
15156;DHT22;7678;50.058;8.306;2024-03-02T03:10:57;3.10;99.90
15156;DHT22;7678;50.058;8.306;2024-03-02T03:13:26;3.00;99.90
15156;DHT22;7678;50.058;8.306;2024-03-02T03:15:55;3.10;99.90
15156;DHT22;7678;50.058;8.306;2024-03-02T03:18:23;3.30;99.90
15156;DHT22;7678;50.058;8.306;2024-03-02T03:20:51;3.30;99.90
15156;DHT22;7678;50.058;8.306;2024-03-02T03:23:19;3.20;99.90
15156;DHT22;7678;50.058;8.306;2024-03-02T03:25:47;3.10;99.90
15156;DHT22;7678;50.058;8.306;2024-03-02T03:28:15;3.10;99.90
15156;DHT22;7678;50.058;8.306;2024-03-02T03:30:45;3.10;99.90
15156;DHT22;7678;50.058;8.306;2024-03-02T03:33:13;2.90;99.90
15156;DHT22;7678;50.058;8.306;2024-03-02T03:35:41;2.90;99.90
15156;DHT22;7678;50.058;8.306;2024-03-02T03:38:09;2.80;99.90
15156;DHT22;7678;50.058;8.306;2024-03-02T03:40:37;2.80;99.90
15156;DHT22;7678;50.058;8.306;2024-03-02T03:43:05;2.80;99.90
15156;DHT22;7678;50.058;8.306;2024-03-02T03:45:33;2.80;99.90
15156;DHT22;7678;50.058;8.306;2024-03-02T03:48:03;2.70;99.90
15156;DHT22;7678;50.058;8.306;2024-03-02T03:50:31;2.80;99.90
15156;DHT22;7678;50.058;8.306;2024-03-02T03:52:59;2.70;99.90
15156;DHT22;7678;50.058;8.306;2024-03-02T03:55:27;2.60;99.90
15156;DHT22;7678;50.058;8.306;2024-03-02T03:57:55;2.60;99.90
15156;DHT22;7678;50.058;8.306;2024-03-02T04:00:24;2.60;99.90
15156;DHT22;7678;50.058;8.306;2024-03-02T04:02:52;2.70;99.90
15156;DHT22;7678;50.058;8.306;2024-03-02T04:05:21;2.70;99.90
15156;DHT22;7678;50.058;8.306;2024-03-02T04:07:49;2.70;99.90
15156;DHT22;7678;50.058;8.306;2024-03-02T04:10:17;2.60;99.90
15156;DHT22;7678;50.058;8.306;2024-03-02T04:12:49;2.60;99.90
15156;DHT22;7678;50.058;8.306;2024-03-02T04:15:17;2.60;99.90
15156;DHT22;7678;50.058;8.306;2024-03-02T04:17:46;2.50;99.90
15156;DHT22;7678;50.058;8.306;2024-03-02T04:20:14;2.40;99.90
15156;DHT22;7678;50.058;8.306;2024-03-02T04:22:44;2.40;99.90
15156;DHT22;7678;50.058;8.306;2024-03-02T04:25:12;2.40;99.90
15156;DHT22;7678;50.058;8.306;2024-03-02T04:27:40;2.40;99.90
15156;DHT22;7678;50.058;8.306;2024-03-02T04:30:09;2.40;99.90
15156;DHT22;7678;50.058;8.306;2024-03-02T04:32:36;2.40;99.90
15156;DHT22;7678;50.058;8.306;2024-03-02T04:35:06;2.40;99.90
15156;DHT22;7678;50.058;8.306;2024-03-02T04:37:35;2.30;99.90
15156;DHT22;7678;50.058;8.306;2024-03-02T04:40:05;2.30;99.90
15156;DHT22;7678;50.058;8.306;2024-03-02T04:42:36;2.20;99.90
15156;DHT22;7678;50.058;8.306;2024-03-02T04:45:05;2.20;99.90
15156;DHT22;7678;50.058;8.306;2024-03-02T04:47:34;2.30;99.90
15156;DHT22;7678;50.058;8.306;2024-03-02T04:50:02;2.30;99.90
15156;DHT22;7678;50.058;8.306;2024-03-02T04:52:30;2.20;99.90
15156;DHT22;7678;50.058;8.306;2024-03-02T04:54:59;2.10;99.90
15156;DHT22;7678;50.058;8.306;2024-03-02T04:57:51;2.00;99.90
15156;DHT22;7678;50.058;8.306;2024-03-02T05:00:21;1.90;99.90
15156;DHT22;7678;50.058;8.306;2024-03-02T05:02:50;2.00;99.90
15156;DHT22;7678;50.058;8.306;2024-03-02T05:05:18;2.20;99.90
15156;DHT22;7678;50.058;8.306;2024-03-02T05:07:46;2.30;99.90
15156;DHT22;7678;50.058;8.306;2024-03-02T05:10:14;2.40;99.90
15156;DHT22;7678;50.058;8.306;2024-03-02T05:12:42;2.50;99.90
15156;DHT22;7678;50.058;8.306;2024-03-02T05:15:28;2.60;99.90
15156;DHT22;7678;50.058;8.306;2024-03-02T05:17:56;2.80;99.90
15156;DHT22;7678;50.058;8.306;2024-03-02T05:20:26;3.00;99.90
15156;DHT22;7678;50.058;8.306;2024-03-02T05:22:54;3.10;99.90
15156;DHT22;7678;50.058;8.306;2024-03-02T05:25:22;3.10;99.90
15156;DHT22;7678;50.058;8.306;2024-03-02T05:27:50;3.20;99.90
15156;DHT22;7678;50.058;8.306;2024-03-02T05:30:18;3.10;99.90
15156;DHT22;7678;50.058;8.306;2024-03-02T05:32:48;3.20;99.90
15156;DHT22;7678;50.058;8.306;2024-03-02T05:35:16;3.20;99.90
15156;DHT22;7678;50.058;8.306;2024-03-02T05:37:44;3.30;99.90
15156;DHT22;7678;50.058;8.306;2024-03-02T05:40:12;3.20;99.90
15156;DHT22;7678;50.058;8.306;2024-03-02T05:42:40;3.30;99.90
15156;DHT22;7678;50.058;8.306;2024-03-02T05:45:09;3.30;99.90
15156;DHT22;7678;50.058;8.306;2024-03-02T05:47:37;3.30;99.90
15156;DHT22;7678;50.058;8.306;2024-03-02T05:50:08;3.40;99.90
15156;DHT22;7678;50.058;8.306;2024-03-02T05:52:37;3.40;99.90
15156;DHT22;7678;50.058;8.306;2024-03-02T05:55:08;3.40;99.90
15156;DHT22;7678;50.058;8.306;2024-03-02T05:57:36;3.40;99.90
15156;DHT22;7678;50.058;8.306;2024-03-02T06:00:22;3.40;99.90
15156;DHT22;7678;50.058;8.306;2024-03-02T06:02:50;3.40;99.90
15156;DHT22;7678;50.058;8.306;2024-03-02T06:05:20;3.50;99.90
15156;DHT22;7678;50.058;8.306;2024-03-02T06:07:48;3.50;99.90
15156;DHT22;7678;50.058;8.306;2024-03-02T06:10:16;3.60;99.90
15156;DHT22;7678;50.058;8.306;2024-03-02T06:12:44;3.60;99.90
15156;DHT22;7678;50.058;8.306;2024-03-02T06:15:12;3.60;99.90
15156;DHT22;7678;50.058;8.306;2024-03-02T06:17:40;3.70;99.90
15156;DHT22;7678;50.058;8.306;2024-03-02T06:20:09;3.70;99.90
15156;DHT22;7678;50.058;8.306;2024-03-02T06:22:39;3.80;99.90
15156;DHT22;7678;50.058;8.306;2024-03-02T06:25:08;3.80;99.90
15156;DHT22;7678;50.058;8.306;2024-03-02T06:27:36;3.90;99.90
15156;DHT22;7678;50.058;8.306;2024-03-02T06:30:05;3.90;99.90
15156;DHT22;7678;50.058;8.306;2024-03-02T06:32:33;3.90;99.90
15156;DHT22;7678;50.058;8.306;2024-03-02T06:35:02;4.00;99.90
15156;DHT22;7678;50.058;8.306;2024-03-02T06:37:31;4.00;99.90
15156;DHT22;7678;50.058;8.306;2024-03-02T06:40:00;3.90;99.90
15156;DHT22;7678;50.058;8.306;2024-03-02T06:42:29;3.90;99.90
15156;DHT22;7678;50.058;8.306;2024-03-02T06:45:01;3.90;99.90
15156;DHT22;7678;50.058;8.306;2024-03-02T06:47:29;3.90;99.90
15156;DHT22;7678;50.058;8.306;2024-03-02T06:49:57;3.90;99.90
15156;DHT22;7678;50.058;8.306;2024-03-02T06:52:25;3.90;99.90
15156;DHT22;7678;50.058;8.306;2024-03-02T06:54:53;3.90;99.90
15156;DHT22;7678;50.058;8.306;2024-03-02T06:57:23;3.80;99.90
15156;DHT22;7678;50.058;8.306;2024-03-02T06:59:51;3.80;99.90
15156;DHT22;7678;50.058;8.306;2024-03-02T07:02:21;3.90;99.90
15156;DHT22;7678;50.058;8.306;2024-03-02T07:04:49;4.10;99.90
15156;DHT22;7678;50.058;8.306;2024-03-02T07:07:18;4.30;99.90
15156;DHT22;7678;50.058;8.306;2024-03-02T07:09:48;4.30;99.90
15156;DHT22;7678;50.058;8.306;2024-03-02T07:12:16;4.50;99.90
15156;DHT22;7678;50.058;8.306;2024-03-02T07:14:46;4.50;99.90
15156;DHT22;7678;50.058;8.306;2024-03-02T07:17:32;4.60;99.90
15156;DHT22;7678;50.058;8.306;2024-03-02T07:20:00;4.70;99.90
15156;DHT22;7678;50.058;8.306;2024-03-02T07:22:28;4.70;99.90
15156;DHT22;7678;50.058;8.306;2024-03-02T07:24:56;4.80;99.90
15156;DHT22;7678;50.058;8.306;2024-03-02T07:27:24;4.90;99.90
15156;DHT22;7678;50.058;8.306;2024-03-02T07:29:54;5.10;99.90
15156;DHT22;7678;50.058;8.306;2024-03-02T07:32:22;5.20;99.90
15156;DHT22;7678;50.058;8.306;2024-03-02T07:34:50;5.30;99.90
15156;DHT22;7678;50.058;8.306;2024-03-02T07:37:19;5.40;99.90
15156;DHT22;7678;50.058;8.306;2024-03-02T07:39:47;5.50;99.90
15156;DHT22;7678;50.058;8.306;2024-03-02T07:42:15;5.60;99.90
15156;DHT22;7678;50.058;8.306;2024-03-02T07:44:44;5.70;99.90
15156;DHT22;7678;50.058;8.306;2024-03-02T07:47:13;5.80;99.90
15156;DHT22;7678;50.058;8.306;2024-03-02T07:49:41;5.80;99.90
15156;DHT22;7678;50.058;8.306;2024-03-02T07:52:09;5.90;99.90
15156;DHT22;7678;50.058;8.306;2024-03-02T07:54:37;5.90;99.90
15156;DHT22;7678;50.058;8.306;2024-03-02T07:57:05;6.00;99.90
15156;DHT22;7678;50.058;8.306;2024-03-02T07:59:33;6.00;99.90
15156;DHT22;7678;50.058;8.306;2024-03-02T08:02:02;6.00;99.90
15156;DHT22;7678;50.058;8.306;2024-03-02T08:04:31;6.00;99.90
15156;DHT22;7678;50.058;8.306;2024-03-02T08:06:59;6.10;99.90
15156;DHT22;7678;50.058;8.306;2024-03-02T08:09:27;6.10;99.90
15156;DHT22;7678;50.058;8.306;2024-03-02T08:11:55;6.10;99.90
15156;DHT22;7678;50.058;8.306;2024-03-02T08:14:24;6.10;99.90
15156;DHT22;7678;50.058;8.306;2024-03-02T08:16:52;6.10;99.90
15156;DHT22;7678;50.058;8.306;2024-03-02T08:19:21;6.20;99.90
15156;DHT22;7678;50.058;8.306;2024-03-02T08:21:50;6.20;99.90
15156;DHT22;7678;50.058;8.306;2024-03-02T08:24:19;6.30;99.90
15156;DHT22;7678;50.058;8.306;2024-03-02T08:26:47;6.50;99.90
15156;DHT22;7678;50.058;8.306;2024-03-02T08:29:15;6.60;99.90
15156;DHT22;7678;50.058;8.306;2024-03-02T08:31:45;6.70;99.90
15156;DHT22;7678;50.058;8.306;2024-03-02T08:34:13;6.70;99.90
15156;DHT22;7678;50.058;8.306;2024-03-02T08:36:42;6.80;99.90
15156;DHT22;7678;50.058;8.306;2024-03-02T08:39:12;7.00;99.90
15156;DHT22;7678;50.058;8.306;2024-03-02T08:41:43;7.10;99.90
15156;DHT22;7678;50.058;8.306;2024-03-02T08:44:12;7.20;99.90
15156;DHT22;7678;50.058;8.306;2024-03-02T08:46:41;7.30;99.90
15156;DHT22;7678;50.058;8.306;2024-03-02T08:49:09;7.40;99.90
15156;DHT22;7678;50.058;8.306;2024-03-02T08:51:37;7.50;99.90
15156;DHT22;7678;50.058;8.306;2024-03-02T08:54:05;7.70;99.90
15156;DHT22;7678;50.058;8.306;2024-03-02T08:56:35;7.70;99.90
15156;DHT22;7678;50.058;8.306;2024-03-02T08:59:04;7.80;99.90
15156;DHT22;7678;50.058;8.306;2024-03-02T09:01:32;7.80;99.90
15156;DHT22;7678;50.058;8.306;2024-03-02T09:04:01;7.70;99.90
15156;DHT22;7678;50.058;8.306;2024-03-02T09:06:29;7.80;99.90
15156;DHT22;7678;50.058;8.306;2024-03-02T09:08:58;7.60;99.90
15156;DHT22;7678;50.058;8.306;2024-03-02T09:11:26;7.70;99.90
15156;DHT22;7678;50.058;8.306;2024-03-02T09:13:56;7.90;99.90
15156;DHT22;7678;50.058;8.306;2024-03-02T09:16:24;7.80;99.90
15156;DHT22;7678;50.058;8.306;2024-03-02T09:18:58;7.90;99.90
15156;DHT22;7678;50.058;8.306;2024-03-02T09:21:27;8.00;99.90
15156;DHT22;7678;50.058;8.306;2024-03-02T09:23:57;7.80;99.90
15156;DHT22;7678;50.058;8.306;2024-03-02T09:26:26;7.90;99.90
15156;DHT22;7678;50.058;8.306;2024-03-02T09:28:58;8.00;99.90
15156;DHT22;7678;50.058;8.306;2024-03-02T09:31:32;8.00;99.90
15156;DHT22;7678;50.058;8.306;2024-03-02T09:34:00;8.10;99.90
15156;DHT22;7678;50.058;8.306;2024-03-02T09:36:30;8.20;99.90
15156;DHT22;7678;50.058;8.306;2024-03-02T09:39:04;8.30;99.90
15156;DHT22;7678;50.058;8.306;2024-03-02T09:41:33;8.30;99.90
15156;DHT22;7678;50.058;8.306;2024-03-02T09:44:03;8.30;99.90
15156;DHT22;7678;50.058;8.306;2024-03-02T09:46:31;8.40;99.90
15156;DHT22;7678;50.058;8.306;2024-03-02T09:48:59;8.40;99.90
15156;DHT22;7678;50.058;8.306;2024-03-02T09:51:28;8.40;99.90
15156;DHT22;7678;50.058;8.306;2024-03-02T09:53:56;8.40;99.90
15156;DHT22;7678;50.058;8.306;2024-03-02T09:56:43;8.30;99.90
15156;DHT22;7678;50.058;8.306;2024-03-02T09:59:13;8.50;99.90
15156;DHT22;7678;50.058;8.306;2024-03-02T10:01:56;8.70;99.90
15156;DHT22;7678;50.058;8.306;2024-03-02T10:04:25;8.80;99.90
15156;DHT22;7678;50.058;8.306;2024-03-02T10:07:12;9.00;99.90
15156;DHT22;7678;50.058;8.306;2024-03-02T10:09:42;9.00;99.90
15156;DHT22;7678;50.058;8.306;2024-03-02T10:12:12;8.90;99.90
15156;DHT22;7678;50.058;8.306;2024-03-02T10:14:41;8.80;99.90
15156;DHT22;7678;50.058;8.306;2024-03-02T10:17:11;8.90;99.90
15156;DHT22;7678;50.058;8.306;2024-03-02T10:19:40;9.00;99.90
15156;DHT22;7678;50.058;8.306;2024-03-02T10:22:09;8.90;99.90
15156;DHT22;7678;50.058;8.306;2024-03-02T10:24:39;9.00;99.90
15156;DHT22;7678;50.058;8.306;2024-03-02T10:27:09;9.20;99.90
15156;DHT22;7678;50.058;8.306;2024-03-02T10:29:38;9.20;99.90
15156;DHT22;7678;50.058;8.306;2024-03-02T10:32:12;9.30;99.90
15156;DHT22;7678;50.058;8.306;2024-03-02T10:34:42;9.20;99.90
15156;DHT22;7678;50.058;8.306;2024-03-02T10:37:11;9.30;99.90
15156;DHT22;7678;50.058;8.306;2024-03-02T10:39:40;9.40;99.90
15156;DHT22;7678;50.058;8.306;2024-03-02T10:42:09;9.60;99.90
15156;DHT22;7678;50.058;8.306;2024-03-02T10:44:37;9.60;99.90
15156;DHT22;7678;50.058;8.306;2024-03-02T10:47:06;9.80;99.90
15156;DHT22;7678;50.058;8.306;2024-03-02T10:49:37;9.80;99.90
15156;DHT22;7678;50.058;8.306;2024-03-02T10:52:06;9.90;99.90
15156;DHT22;7678;50.058;8.306;2024-03-02T10:54:36;9.70;99.90
15156;DHT22;7678;50.058;8.306;2024-03-02T10:57:11;9.80;99.90
15156;DHT22;7678;50.058;8.306;2024-03-02T10:59:52;10.00;99.90
15156;DHT22;7678;50.058;8.306;2024-03-02T11:02:21;9.90;99.90
15156;DHT22;7678;50.058;8.306;2024-03-02T11:04:55;9.90;99.90
15156;DHT22;7678;50.058;8.306;2024-03-02T11:07:24;9.90;99.90
15156;DHT22;7678;50.058;8.306;2024-03-02T11:09:55;10.10;99.90
15156;DHT22;7678;50.058;8.306;2024-03-02T11:12:30;10.10;99.90
15156;DHT22;7678;50.058;8.306;2024-03-02T11:15:00;10.00;99.90
15156;DHT22;7678;50.058;8.306;2024-03-02T11:17:29;10.00;99.90
15156;DHT22;7678;50.058;8.306;2024-03-02T11:19:59;10.10;99.90
15156;DHT22;7678;50.058;8.306;2024-03-02T11:22:28;10.00;99.90
15156;DHT22;7678;50.058;8.306;2024-03-02T11:24:56;10.20;99.90
15156;DHT22;7678;50.058;8.306;2024-03-02T11:30:49;10.30;99.90
15156;DHT22;7678;50.058;8.306;2024-03-02T11:33:24;10.40;99.90
15156;DHT22;7678;50.058;8.306;2024-03-02T11:35:56;10.10;99.90
15156;DHT22;7678;50.058;8.306;2024-03-02T11:38:31;10.10;99.90
15156;DHT22;7678;50.058;8.306;2024-03-02T11:41:01;10.30;99.90
15156;DHT22;7678;50.058;8.306;2024-03-02T11:43:29;10.50;99.90
15156;DHT22;7678;50.058;8.306;2024-03-02T11:46:00;10.50;99.90
15156;DHT22;7678;50.058;8.306;2024-03-02T11:48:35;10.70;99.90
15156;DHT22;7678;50.058;8.306;2024-03-02T11:51:05;10.90;99.90
15156;DHT22;7678;50.058;8.306;2024-03-02T11:53:33;10.60;99.90
15156;DHT22;7678;50.058;8.306;2024-03-02T11:56:06;10.80;99.90
15156;DHT22;7678;50.058;8.306;2024-03-02T11:58:37;11.00;99.20
15156;DHT22;7678;50.058;8.306;2024-03-02T12:01:08;10.90;96.00
15156;DHT22;7678;50.058;8.306;2024-03-02T12:03:36;11.00;96.00
15156;DHT22;7678;50.058;8.306;2024-03-02T12:06:07;11.10;98.40
15156;DHT22;7678;50.058;8.306;2024-03-02T12:08:36;11.10;96.60
15156;DHT22;7678;50.058;8.306;2024-03-02T12:11:05;11.10;95.90
15156;DHT22;7678;50.058;8.306;2024-03-02T12:13:34;11.20;95.90
15156;DHT22;7678;50.058;8.306;2024-03-02T12:16:03;11.10;97.40
15156;DHT22;7678;50.058;8.306;2024-03-02T12:18:32;11.30;95.30
15156;DHT22;7678;50.058;8.306;2024-03-02T12:21:00;11.50;95.10
15156;DHT22;7678;50.058;8.306;2024-03-02T12:23:32;11.70;92.00
15156;DHT22;7678;50.058;8.306;2024-03-02T12:26:00;11.90;90.60
15156;DHT22;7678;50.058;8.306;2024-03-02T12:28:28;12.00;86.80
15156;DHT22;7678;50.058;8.306;2024-03-02T12:30:58;12.10;85.00
15156;DHT22;7678;50.058;8.306;2024-03-02T12:33:27;12.00;84.60
15156;DHT22;7678;50.058;8.306;2024-03-02T12:35:57;11.70;87.10
15156;DHT22;7678;50.058;8.306;2024-03-02T12:38:26;11.60;88.00
15156;DHT22;7678;50.058;8.306;2024-03-02T12:40:57;11.60;84.90
15156;DHT22;7678;50.058;8.306;2024-03-02T12:43:30;11.60;86.30
15156;DHT22;7678;50.058;8.306;2024-03-02T12:45:59;11.80;81.90
15156;DHT22;7678;50.058;8.306;2024-03-02T12:48:28;12.00;82.20
15156;DHT22;7678;50.058;8.306;2024-03-02T12:50:56;12.00;81.60
15156;DHT22;7678;50.058;8.306;2024-03-02T12:53:24;12.00;81.10
15156;DHT22;7678;50.058;8.306;2024-03-02T12:55:52;11.90;80.70
15156;DHT22;7678;50.058;8.306;2024-03-02T12:58:24;12.00;80.80
15156;DHT22;7678;50.058;8.306;2024-03-02T13:01:06;12.20;81.90
15156;DHT22;7678;50.058;8.306;2024-03-02T13:03:36;12.10;81.70
15156;DHT22;7678;50.058;8.306;2024-03-02T13:06:07;11.90;80.70
15156;DHT22;7678;50.058;8.306;2024-03-02T13:08:36;11.60;82.10
15156;DHT22;7678;50.058;8.306;2024-03-02T13:11:04;11.70;83.30
15156;DHT22;7678;50.058;8.306;2024-03-02T13:13:35;11.60;86.40
15156;DHT22;7678;50.058;8.306;2024-03-02T13:16:07;11.30;85.10
15156;DHT22;7678;50.058;8.306;2024-03-02T13:18:36;11.30;87.70
15156;DHT22;7678;50.058;8.306;2024-03-02T13:21:04;11.50;88.90
15156;DHT22;7678;50.058;8.306;2024-03-02T13:23:32;11.50;88.20
15156;DHT22;7678;50.058;8.306;2024-03-02T13:26:01;11.60;86.50
15156;DHT22;7678;50.058;8.306;2024-03-02T13:28:31;11.60;87.00
15156;DHT22;7678;50.058;8.306;2024-03-02T13:31:01;11.60;86.80
15156;DHT22;7678;50.058;8.306;2024-03-02T13:33:29;11.90;88.00
15156;DHT22;7678;50.058;8.306;2024-03-02T13:35:59;12.20;87.20
15156;DHT22;7678;50.058;8.306;2024-03-02T13:38:28;12.60;78.90
15156;DHT22;7678;50.058;8.306;2024-03-02T13:40:56;13.00;77.10
15156;DHT22;7678;50.058;8.306;2024-03-02T13:43:26;13.00;77.10
15156;DHT22;7678;50.058;8.306;2024-03-02T13:45:58;13.00;75.20
15156;DHT22;7678;50.058;8.306;2024-03-02T13:48:28;13.10;76.10
15156;DHT22;7678;50.058;8.306;2024-03-02T13:50:57;13.20;73.70
15156;DHT22;7678;50.058;8.306;2024-03-02T13:53:26;13.20;71.10
15156;DHT22;7678;50.058;8.306;2024-03-02T13:55:54;13.00;69.70
15156;DHT22;7678;50.058;8.306;2024-03-02T13:58:22;12.90;71.60
15156;DHT22;7678;50.058;8.306;2024-03-02T14:00:50;13.20;67.70
15156;DHT22;7678;50.058;8.306;2024-03-02T14:03:19;13.10;68.20
15156;DHT22;7678;50.058;8.306;2024-03-02T14:05:51;13.40;69.60
15156;DHT22;7678;50.058;8.306;2024-03-02T14:08:19;13.50;67.40
15156;DHT22;7678;50.058;8.306;2024-03-02T14:10:47;13.50;66.20
15156;DHT22;7678;50.058;8.306;2024-03-02T14:13:15;13.60;66.00
15156;DHT22;7678;50.058;8.306;2024-03-02T14:15:44;13.60;66.80
15156;DHT22;7678;50.058;8.306;2024-03-02T14:18:13;13.40;66.60
15156;DHT22;7678;50.058;8.306;2024-03-02T14:20:41;13.40;65.70
15156;DHT22;7678;50.058;8.306;2024-03-02T14:23:13;13.30;67.90
15156;DHT22;7678;50.058;8.306;2024-03-02T14:25:41;13.20;67.20
15156;DHT22;7678;50.058;8.306;2024-03-02T14:28:09;13.20;67.60
15156;DHT22;7678;50.058;8.306;2024-03-02T14:30:59;13.00;67.70
15156;DHT22;7678;50.058;8.306;2024-03-02T14:33:28;13.30;67.80
15156;DHT22;7678;50.058;8.306;2024-03-02T14:35:57;13.50;68.20
15156;DHT22;7678;50.058;8.306;2024-03-02T14:38:27;13.40;68.60
15156;DHT22;7678;50.058;8.306;2024-03-02T14:40:55;13.30;67.00
15156;DHT22;7678;50.058;8.306;2024-03-02T14:43:23;13.30;67.50
15156;DHT22;7678;50.058;8.306;2024-03-02T14:45:51;13.50;68.20
15156;DHT22;7678;50.058;8.306;2024-03-02T14:48:19;13.40;65.60
15156;DHT22;7678;50.058;8.306;2024-03-02T14:50:48;13.30;67.00
15156;DHT22;7678;50.058;8.306;2024-03-02T14:53:16;13.30;67.00
15156;DHT22;7678;50.058;8.306;2024-03-02T14:55:46;13.20;68.40
15156;DHT22;7678;50.058;8.306;2024-03-02T14:58:15;13.40;68.10
15156;DHT22;7678;50.058;8.306;2024-03-02T15:00:43;13.40;67.80
15156;DHT22;7678;50.058;8.306;2024-03-02T15:03:12;13.30;69.90
15156;DHT22;7678;50.058;8.306;2024-03-02T15:05:40;13.10;70.00
15156;DHT22;7678;50.058;8.306;2024-03-02T15:08:08;13.10;70.60
15156;DHT22;7678;50.058;8.306;2024-03-02T15:10:36;13.30;70.90
15156;DHT22;7678;50.058;8.306;2024-03-02T15:13:06;13.30;68.80
15156;DHT22;7678;50.058;8.306;2024-03-02T15:15:34;13.40;68.20
15156;DHT22;7678;50.058;8.306;2024-03-02T15:18:02;13.50;68.20
15156;DHT22;7678;50.058;8.306;2024-03-02T15:20:32;13.50;67.90
15156;DHT22;7678;50.058;8.306;2024-03-02T15:23:00;13.50;67.90
15156;DHT22;7678;50.058;8.306;2024-03-02T15:25:28;13.30;69.80
15156;DHT22;7678;50.058;8.306;2024-03-02T15:27:57;13.30;70.00
15156;DHT22;7678;50.058;8.306;2024-03-02T15:30:26;13.40;69.20
15156;DHT22;7678;50.058;8.306;2024-03-02T15:32:54;13.40;69.40
15156;DHT22;7678;50.058;8.306;2024-03-02T15:35:22;13.30;70.30
15156;DHT22;7678;50.058;8.306;2024-03-02T15:37:50;13.30;69.50
15156;DHT22;7678;50.058;8.306;2024-03-02T15:40:18;13.30;69.10
15156;DHT22;7678;50.058;8.306;2024-03-02T15:42:46;13.30;70.10
15156;DHT22;7678;50.058;8.306;2024-03-02T15:45:15;13.10;70.50
15156;DHT22;7678;50.058;8.306;2024-03-02T15:47:44;13.10;70.20
15156;DHT22;7678;50.058;8.306;2024-03-02T15:50:13;13.10;70.60
15156;DHT22;7678;50.058;8.306;2024-03-02T15:52:41;12.90;72.10
15156;DHT22;7678;50.058;8.306;2024-03-02T15:55:12;12.70;74.10
15156;DHT22;7678;50.058;8.306;2024-03-02T15:57:40;12.70;76.30
15156;DHT22;7678;50.058;8.306;2024-03-02T16:00:09;12.50;79.40
15156;DHT22;7678;50.058;8.306;2024-03-02T16:02:36;12.40;79.30
15156;DHT22;7678;50.058;8.306;2024-03-02T16:05:06;12.30;80.70
15156;DHT22;7678;50.058;8.306;2024-03-02T16:07:34;12.20;83.80
15156;DHT22;7678;50.058;8.306;2024-03-02T16:10:02;12.00;86.00
15156;DHT22;7678;50.058;8.306;2024-03-02T16:12:33;11.90;87.90
15156;DHT22;7678;50.058;8.306;2024-03-02T16:15:01;11.80;89.70